createdAt,value
2022-11-12T00:00:41.877Z,6.50
2022-11-12T00:10:48.799Z,6.13
2022-11-12T00:15:53.628Z,6.50
2022-11-12T00:26:01.187Z,6.35
2022-11-12T00:31:11.140Z,6.35
2022-11-12T00:36:14.485Z,6.65
2022-11-12T00:41:17.970Z,7.00
2022-11-12T00:46:22.780Z,6.75
2022-11-12T00:56:35.290Z,6.00
2022-11-12T01:01:40.715Z,5.85
2022-11-12T01:06:44.532Z,6.00
2022-11-12T01:11:48.354Z,6.00
2022-11-12T01:16:53.015Z,5.30
2022-11-12T01:21:56.545Z,5.40
2022-11-12T01:26:59.813Z,6.38
2022-11-12T01:32:04.618Z,5.78
2022-11-12T01:42:11.557Z,5.70
2022-11-12T01:47:22.685Z,6.00
2022-11-12T01:52:32.168Z,5.60
2022-11-12T01:57:41.605Z,4.97
2022-11-12T02:02:53.234Z,5.15
2022-11-12T02:07:58.671Z,4.57
2022-11-12T02:13:20.637Z,4.70
2022-11-12T02:18:25.593Z,5.13
2022-11-12T02:23:32.343Z,5.40
2022-11-12T02:28:35.900Z,4.25
2022-11-12T02:33:39.121Z,4.20
2022-11-12T02:38:44.129Z,4.40
2022-11-12T02:43:47.565Z,4.53
2022-11-12T02:48:50.918Z,4.80
2022-11-12T02:53:55.678Z,5.10
2022-11-12T03:04:02.192Z,4.68
2022-11-12T03:09:06.848Z,4.90
2022-11-12T03:14:10.359Z,4.03
2022-11-12T03:19:13.823Z,4.13
2022-11-12T03:24:18.574Z,4.60
2022-11-12T03:34:24.842Z,4.72
2022-11-12T03:39:29.576Z,4.70
2022-11-12T03:49:36.241Z,4.82
2022-11-12T03:54:41.054Z,4.85
2022-11-12T04:05:05.212Z,5.28
2022-11-12T04:10:10.489Z,4.60
2022-11-12T04:15:13.984Z,4.60
2022-11-12T04:20:34.976Z,4.20
2022-11-12T04:25:58.684Z,4.70
2022-11-12T04:31:02.050Z,5.10
2022-11-12T04:36:05.572Z,4.30
2022-11-12T04:41:28.264Z,4.03
2022-11-12T04:46:31.669Z,4.05
2022-11-12T04:51:52.489Z,4.15
2022-11-12T04:56:57.397Z,4.53
2022-11-12T05:02:00.667Z,4.32
2022-11-12T05:07:04.400Z,4.68
2022-11-12T05:12:09.544Z,4.18
2022-11-12T05:17:13.113Z,4.50
2022-11-12T05:22:40.384Z,3.92
2022-11-12T05:27:41.461Z,4.20
2022-11-12T05:32:44.735Z,4.25
2022-11-12T05:37:48.267Z,3.70
2022-11-12T05:42:53.018Z,3.47
2022-11-12T05:47:56.545Z,3.45
2022-11-12T05:53:00.146Z,3.05
2022-11-12T05:58:07.937Z,3.60
2022-11-12T06:03:12.739Z,3.28
2022-11-12T06:13:20.858Z,3.10
2022-11-12T06:18:25.616Z,3.10
2022-11-12T06:23:29.203Z,2.38
2022-11-12T06:28:34.046Z,2.75
2022-11-12T06:33:37.490Z,2.45
2022-11-12T06:38:42.372Z,2.30
2022-11-12T06:43:47.229Z,2.03
2022-11-12T06:53:55.302Z,2.00
2022-11-12T06:59:00.358Z,2.03
2022-11-12T07:04:03.766Z,1.85
2022-11-12T07:09:08.120Z,2.72
2022-11-12T07:14:13.159Z,1.63
2022-11-12T07:19:16.829Z,1.75
2022-11-12T07:24:20.157Z,1.65
2022-11-12T07:29:46.415Z,1.27
2022-11-12T07:34:48.540Z,1.50
2022-11-12T07:39:51.802Z,1.30
2022-11-12T07:44:56.422Z,1.58
2022-11-12T07:50:00.371Z,1.50
2022-11-12T07:55:03.604Z,1.40
2022-11-12T08:00:10.972Z,1.13
2022-11-12T08:05:18.833Z,1.25
2022-11-12T08:10:26.696Z,1.20
2022-11-12T08:15:31.694Z,1.17
2022-11-12T08:20:35.226Z,1.30
2022-11-12T08:25:38.645Z,1.17
2022-11-12T08:30:43.416Z,1.20
2022-11-12T08:40:49.781Z,1.17
2022-11-12T08:45:54.532Z,1.10
2022-11-12T08:56:01.493Z,1.20
2022-11-12T09:01:10.080Z,1.38
2022-11-12T09:06:13.534Z,1.10
2022-11-12T09:11:18.215Z,1.40
2022-11-12T09:16:24.522Z,1.40
2022-11-12T09:21:27.801Z,1.20
2022-11-12T09:26:31.241Z,1.30
2022-11-12T09:31:35.880Z,1.30
2022-11-12T09:41:44.287Z,1.30
2022-11-12T09:46:52.994Z,1.40
2022-11-12T09:52:02.754Z,1.15
2022-11-12T09:57:11.369Z,1.05
2022-11-12T10:02:28.853Z,1.10
2022-11-12T10:07:47.839Z,0.98
2022-11-12T10:13:04.867Z,1.00
2022-11-12T10:18:12.800Z,1.23
2022-11-12T10:23:20.829Z,1.05
2022-11-12T10:28:34.278Z,1.20
2022-11-12T10:33:42.017Z,1.02
2022-11-12T10:43:58.567Z,1.20
2022-11-12T10:49:05.346Z,1.10
2022-11-12T10:54:29.300Z,1.30
2022-11-12T10:59:34.047Z,0.80
2022-11-12T11:09:54.108Z,0.90
2022-11-12T11:15:20.167Z,1.00
2022-11-12T11:20:27.585Z,1.10
2022-11-12T11:25:32.853Z,0.95
2022-11-12T11:30:46.860Z,1.35
2022-11-12T11:36:04.914Z,1.20
2022-11-12T11:41:30.409Z,1.10
2022-11-12T11:46:49.737Z,1.20
2022-11-12T11:52:03.139Z,0.90
2022-11-12T11:57:13.141Z,1.17
2022-11-12T12:02:30.152Z,1.00
2022-11-12T12:07:43.437Z,0.90
2022-11-12T12:12:59.065Z,1.38
2022-11-12T12:18:13.887Z,1.20
2022-11-12T12:28:37.790Z,1.25
2022-11-12T12:33:48.394Z,1.10
2022-11-12T12:38:57.337Z,0.90
2022-11-12T12:44:05.732Z,0.82
2022-11-12T12:49:14.541Z,1.00
2022-11-12T12:54:54.786Z,0.80
2022-11-12T13:00:33.816Z,1.05
2022-11-12T13:05:40.404Z,1.00
2022-11-12T13:10:49.717Z,0.80
2022-11-12T13:15:56.255Z,0.80
2022-11-12T13:21:12.110Z,0.80
2022-11-12T13:26:54.220Z,0.80
2022-11-12T13:32:32.374Z,0.75
2022-11-12T13:37:35.913Z,0.85
2022-11-12T13:42:52.295Z,0.80
2022-11-12T13:47:59.630Z,0.70
2022-11-12T13:53:03.361Z,0.82
2022-11-12T13:58:19.772Z,0.70
2022-11-12T14:03:27.084Z,0.70
2022-11-12T14:08:56.974Z,0.60
2022-11-12T14:14:13.405Z,0.65
2022-11-12T14:19:52.836Z,0.75
2022-11-12T14:25:01.580Z,0.60
2022-11-12T14:30:15.310Z,0.70
2022-11-12T14:35:36.197Z,0.63
2022-11-12T14:40:45.538Z,0.60
2022-11-12T14:45:50.368Z,0.60
2022-11-12T14:51:08.001Z,1.13
2022-11-12T14:56:17.823Z,0.70
2022-11-12T15:06:58.541Z,0.70
2022-11-12T15:12:02.153Z,0.60
2022-11-12T15:17:06.442Z,0.60
2022-11-12T15:22:22.979Z,0.57
2022-11-12T15:27:36.374Z,0.55
2022-11-12T15:32:39.593Z,1.00
2022-11-12T15:37:44.671Z,0.60
2022-11-12T15:42:49.339Z,0.57
2022-11-12T15:47:52.937Z,0.60
2022-11-12T15:52:59.584Z,0.60
2022-11-12T15:58:03.146Z,0.65
2022-11-12T16:03:15.049Z,0.80
2022-11-12T16:08:20.464Z,0.73
2022-11-12T16:13:29.381Z,0.60
2022-11-12T16:18:32.982Z,0.82
2022-11-12T16:23:40.122Z,0.70
2022-11-12T16:28:44.038Z,0.70
2022-11-12T16:33:47.585Z,0.70
2022-11-12T16:38:52.503Z,0.70
2022-11-12T16:43:55.897Z,0.75
2022-11-12T16:48:59.372Z,0.82
2022-11-12T16:54:04.160Z,0.82
2022-11-12T16:59:07.710Z,0.77
2022-11-12T17:04:11.613Z,0.68
2022-11-12T17:09:18.718Z,0.80
2022-11-12T17:14:27.105Z,0.70
2022-11-12T17:19:31.943Z,1.00
2022-11-12T17:24:36.691Z,0.88
2022-11-12T17:29:40.289Z,0.77
2022-11-12T17:34:43.702Z,1.05
2022-11-12T17:39:48.481Z,0.95
2022-11-12T17:49:55.662Z,1.10
2022-11-12T17:55:00.484Z,1.00
2022-11-12T18:00:04.314Z,0.80
2022-11-12T18:05:10.526Z,0.68
2022-11-12T18:10:19.396Z,0.77
2022-11-12T18:15:23.196Z,0.90
2022-11-12T18:20:26.730Z,0.85
2022-11-12T18:25:31.513Z,0.98
2022-11-12T18:30:36.666Z,1.25
2022-11-12T18:35:40.127Z,0.90
2022-11-12T18:40:44.983Z,0.80
2022-11-12T18:45:55.423Z,1.00
2022-11-12T18:51:03.748Z,1.00
2022-11-12T18:56:14.769Z,1.05
2022-11-12T19:01:21.137Z,1.00
2022-11-12T19:06:26.719Z,1.13
2022-11-12T19:11:31.571Z,1.10
2022-11-12T19:16:34.977Z,0.90
2022-11-12T19:21:39.262Z,1.20
2022-11-12T19:26:43.976Z,1.10
2022-11-12T19:37:11.850Z,1.15
2022-11-12T19:42:15.498Z,0.98
2022-11-12T19:52:22.601Z,0.90
2022-11-12T19:57:28.081Z,0.90
2022-11-12T20:02:31.494Z,0.93
2022-11-12T20:07:35.050Z,0.90
2022-11-12T20:12:40.697Z,0.80
2022-11-12T20:17:44.292Z,1.00
2022-11-12T20:22:47.539Z,1.08
2022-11-12T20:27:52.458Z,0.98
2022-11-12T20:32:55.876Z,0.80
2022-11-12T20:38:00.167Z,1.20
2022-11-12T20:43:05.034Z,0.93
2022-11-12T20:48:08.461Z,1.00
2022-11-12T20:53:12.763Z,1.00
2022-11-12T20:58:17.592Z,1.02
2022-11-12T21:03:21.234Z,1.00
2022-11-12T21:08:24.955Z,1.40
2022-11-12T21:13:29.860Z,1.50
2022-11-12T21:18:34.172Z,0.75
2022-11-12T21:23:39.105Z,0.95
2022-11-12T21:28:45.881Z,0.98
2022-11-12T21:33:51.125Z,0.70
2022-11-12T21:38:54.751Z,0.68
2022-11-12T21:43:59.607Z,0.70
2022-11-12T21:49:03.308Z,1.00
2022-11-12T21:54:08.360Z,0.70
2022-11-12T21:59:13.091Z,0.77
2022-11-12T22:14:26.405Z,0.70
2022-11-12T22:19:29.884Z,1.02
2022-11-12T22:24:33.310Z,0.70
2022-11-12T22:29:38.044Z,0.98
2022-11-12T22:39:49.049Z,0.70
2022-11-12T22:44:53.773Z,0.80
2022-11-12T22:55:00.051Z,0.73
2022-11-12T23:00:09.580Z,0.60
2022-11-12T23:05:13.108Z,0.60
2022-11-12T23:10:16.400Z,0.50
2022-11-12T23:15:21.115Z,0.90
2022-11-12T23:20:24.723Z,0.60
2022-11-12T23:25:28.121Z,0.60
2022-11-12T23:30:32.825Z,0.70
2022-11-12T23:40:39.230Z,0.77
2022-11-12T23:45:44.260Z,0.50
2022-11-12T23:50:49.416Z,0.73
2022-11-12T23:55:53.031Z,0.60
